createdAt,value
2023-05-16T00:02:19.755Z,44.34
2023-05-16T00:04:52.180Z,44.40
2023-05-16T00:07:24.407Z,44.49
2023-05-16T00:09:56.842Z,44.63
2023-05-16T00:12:29.493Z,44.61
2023-05-16T00:15:02.021Z,44.64
2023-05-16T00:17:35.754Z,44.67
2023-05-16T00:20:12.078Z,44.77
2023-05-16T00:22:44.444Z,44.92
2023-05-16T00:25:16.596Z,44.94
2023-05-16T00:27:48.822Z,44.94
2023-05-16T00:30:21.161Z,45.03
2023-05-16T00:32:53.452Z,45.11
2023-05-16T00:35:26.048Z,45.27
2023-05-16T00:37:58.325Z,45.39
2023-05-16T00:40:30.743Z,45.45
2023-05-16T00:43:03.079Z,45.49
2023-05-16T00:45:35.234Z,45.59
2023-05-16T00:48:09.502Z,45.75
2023-05-16T00:50:41.952Z,45.76
2023-05-16T00:53:14.793Z,45.82
2023-05-16T00:55:47.061Z,45.83
2023-05-16T00:58:19.321Z,45.98
2023-05-16T01:00:51.961Z,46.06
2023-05-16T01:03:24.526Z,46.19
2023-05-16T01:05:57.264Z,46.28
2023-05-16T01:08:29.413Z,46.35
2023-05-16T01:11:09.589Z,46.46
2023-05-16T01:13:51.188Z,46.60
2023-05-16T01:16:34.892Z,46.62
2023-05-16T01:19:16.631Z,46.84
2023-05-16T01:22:02.490Z,46.86
2023-05-16T01:24:44.388Z,46.98
2023-05-16T01:27:17.997Z,46.89
2023-05-16T01:29:50.262Z,47.08
2023-05-16T01:32:22.924Z,47.22
2023-05-16T01:34:56.155Z,47.20
2023-05-16T01:37:37.609Z,47.29
2023-05-16T01:40:15.018Z,47.31
2023-05-16T01:42:49.895Z,47.32
2023-05-16T01:45:28.362Z,47.44
2023-05-16T01:48:06.704Z,47.52
2023-05-16T01:50:42.338Z,47.61
2023-05-16T01:53:16.501Z,47.72
2023-05-16T01:55:51.496Z,47.89
2023-05-16T01:58:27.633Z,47.88
2023-05-16T02:01:03.836Z,47.86
2023-05-16T02:03:36.572Z,47.95
2023-05-16T02:06:09.149Z,48.08
2023-05-16T02:08:41.271Z,48.05
2023-05-16T02:11:13.488Z,48.20
2023-05-16T02:13:45.887Z,48.23
2023-05-16T02:16:18.115Z,48.37
2023-05-16T02:18:50.258Z,48.33
2023-05-16T02:21:22.656Z,48.39
2023-05-16T02:23:54.866Z,48.47
2023-05-16T02:26:27.030Z,48.58
2023-05-16T02:28:59.297Z,48.65
2023-05-16T02:31:32.991Z,48.72
2023-05-16T02:34:05.590Z,48.79
2023-05-16T02:36:37.807Z,48.93
2023-05-16T02:39:10.367Z,49.07
2023-05-16T02:41:42.653Z,49.02
2023-05-16T02:44:14.848Z,49.16
2023-05-16T02:46:47.185Z,49.24
2023-05-16T02:49:19.649Z,49.34
2023-05-16T02:51:52.110Z,49.36
2023-05-16T02:54:24.288Z,49.47
2023-05-16T02:56:56.581Z,49.48
2023-05-16T02:59:28.683Z,49.75
2023-05-16T03:02:00.957Z,49.78
2023-05-16T03:04:33.619Z,49.83
2023-05-16T03:07:06.072Z,50.11
2023-05-16T03:09:38.461Z,50.15
2023-05-16T03:12:11.101Z,50.23
2023-05-16T03:14:43.469Z,50.41
2023-05-16T03:17:15.782Z,50.44
2023-05-16T03:19:48.027Z,50.55
2023-05-16T03:22:20.727Z,50.78
2023-05-16T03:24:53.053Z,50.87
2023-05-16T03:27:26.388Z,51.03
2023-05-16T03:29:58.619Z,51.07
2023-05-16T03:32:30.882Z,51.30
2023-05-16T03:35:03.610Z,51.38
2023-05-16T03:37:36.702Z,51.52
2023-05-16T03:40:11.434Z,51.71
2023-05-16T03:42:43.705Z,51.87
2023-05-16T03:45:15.907Z,51.80
2023-05-16T03:47:49.725Z,51.92
2023-05-16T03:50:22.131Z,52.02
2023-05-16T03:52:54.521Z,52.02
2023-05-16T03:55:26.961Z,51.98
2023-05-16T03:57:59.416Z,52.16
2023-05-16T04:00:31.776Z,52.44
2023-05-16T04:03:04.309Z,52.45
2023-05-16T04:05:36.772Z,52.36
2023-05-16T04:08:09.282Z,52.54
2023-05-16T04:10:41.564Z,52.64
2023-05-16T04:13:13.844Z,52.73
2023-05-16T04:15:46.159Z,52.78
2023-05-16T04:18:19.576Z,52.85
2023-05-16T04:20:51.698Z,52.85
2023-05-16T04:23:23.818Z,52.95
2023-05-16T04:25:56.514Z,53.13
2023-05-16T04:28:28.780Z,53.12
2023-05-16T04:31:00.962Z,53.31
2023-05-16T04:33:33.247Z,53.29
2023-05-16T04:36:06.486Z,53.67
2023-05-16T04:38:38.874Z,53.73
2023-05-16T04:41:11.217Z,53.84
2023-05-16T04:43:43.568Z,53.80
2023-05-16T04:46:15.944Z,53.90
2023-05-16T04:48:48.113Z,54.00
2023-05-16T04:51:20.447Z,53.99
2023-05-16T04:53:52.456Z,54.00
2023-05-16T04:56:24.643Z,54.08
2023-05-16T04:58:56.829Z,54.10
2023-05-16T05:01:29.104Z,54.13
2023-05-16T05:04:01.282Z,54.14
2023-05-16T05:06:33.585Z,54.12
2023-05-16T05:09:07.054Z,54.24
2023-05-16T05:11:39.396Z,54.24
2023-05-16T05:14:11.593Z,54.21
2023-05-16T05:16:43.872Z,54.31
2023-05-16T05:19:16.315Z,54.39
2023-05-16T05:21:48.720Z,54.30
2023-05-16T05:24:21.044Z,54.28
2023-05-16T05:26:53.884Z,54.37
2023-05-16T05:29:26.306Z,54.44
2023-05-16T05:31:58.559Z,54.50
2023-05-16T05:34:30.889Z,54.47
2023-05-16T05:37:03.175Z,54.42
2023-05-16T05:39:35.487Z,54.28
2023-05-16T05:42:08.376Z,54.38
2023-05-16T05:44:40.830Z,54.30
2023-05-16T05:47:13.193Z,54.24
2023-05-16T05:49:46.197Z,54.23
2023-05-16T05:52:18.442Z,54.20
2023-05-16T05:54:50.864Z,54.23
2023-05-16T05:57:22.860Z,54.20
2023-05-16T05:59:55.050Z,54.17
2023-05-16T06:02:27.306Z,54.04
2023-05-16T06:05:00.124Z,54.04
2023-05-16T06:07:32.325Z,54.01
2023-05-16T06:10:05.581Z,53.97
2023-05-16T06:12:37.790Z,53.89
2023-05-16T06:15:12.152Z,53.90
2023-05-16T06:17:44.439Z,53.97
2023-05-16T06:20:17.104Z,54.06
2023-05-16T06:22:49.492Z,53.95
2023-05-16T06:25:21.776Z,53.99
2023-05-16T06:27:54.003Z,53.91
2023-05-16T06:30:26.113Z,53.90
2023-05-16T06:32:58.321Z,53.68
2023-05-16T06:35:30.711Z,53.60
2023-05-16T06:38:02.983Z,53.59
2023-05-16T06:40:35.238Z,53.67
2023-05-16T06:43:07.831Z,53.62
2023-05-16T06:45:40.101Z,53.49
2023-05-16T06:48:12.431Z,53.34
2023-05-16T06:50:45.094Z,53.31
2023-05-16T09:21:15.342Z,45.01
2023-05-16T09:23:44.584Z,44.74
2023-05-16T09:26:14.453Z,44.58
2023-05-16T09:28:44.536Z,44.39
2023-05-16T09:31:26.070Z,44.63
2023-05-16T09:33:57.252Z,44.20
2023-05-16T09:36:27.220Z,43.84
2023-05-16T09:38:56.517Z,44.01
2023-05-16T09:41:25.593Z,43.67
2023-05-16T09:43:55.463Z,43.32
2023-05-16T09:46:27.676Z,43.32
2023-05-16T09:48:56.846Z,43.58
2023-05-16T09:51:26.614Z,43.38
2023-05-16T09:53:58.461Z,42.65
2023-05-16T09:56:27.904Z,42.84
2023-05-16T09:58:56.971Z,42.70
2023-05-16T10:01:26.362Z,42.05
2023-05-16T10:03:55.668Z,42.17
2023-05-16T10:06:25.974Z,41.75
2023-05-16T10:08:55.560Z,41.83
2023-05-16T10:11:25.095Z,41.69
2023-05-16T10:13:54.113Z,41.08
2023-05-16T10:16:24.066Z,40.83
2023-05-16T10:18:54.065Z,41.05
2023-05-16T10:21:25.909Z,41.15
2023-05-16T10:23:59.826Z,40.52
2023-05-16T10:26:29.778Z,40.57
2023-05-16T10:29:00.348Z,40.30
2023-05-16T10:31:30.595Z,40.03
2023-05-16T10:34:00.249Z,40.23
2023-05-16T10:36:30.798Z,40.41
2023-05-16T10:39:00.811Z,40.00
2023-05-16T10:41:30.192Z,40.00
2023-05-16T10:43:59.733Z,40.15
2023-05-16T10:46:29.727Z,40.04
2023-05-16T10:48:59.129Z,39.97
2023-05-16T10:51:39.156Z,39.71
2023-05-16T10:54:10.791Z,39.68
2023-05-16T10:56:40.192Z,39.13
2023-05-16T10:59:24.758Z,39.24
2023-05-16T11:01:57.441Z,39.08
2023-05-16T11:04:48.334Z,39.41
2023-05-16T11:07:19.282Z,39.51
2023-05-16T11:10:03.041Z,39.24
2023-05-16T11:12:42.389Z,39.53
2023-05-16T11:15:23.250Z,39.05
2023-05-16T11:18:03.820Z,38.94
2023-05-16T11:20:34.372Z,39.06
2023-05-16T11:23:25.367Z,38.84
2023-05-16T11:25:57.251Z,38.81
2023-05-16T11:28:28.054Z,39.08
2023-05-16T11:30:59.410Z,39.13
2023-05-16T11:33:33.815Z,38.97
2023-05-16T11:36:15.303Z,38.88
2023-05-16T11:38:45.501Z,39.05
2023-05-16T11:41:17.124Z,39.02
2023-05-16T11:43:46.571Z,38.66
2023-05-16T11:46:16.675Z,38.79
2023-05-16T11:48:46.858Z,38.51
2023-05-16T11:51:19.683Z,38.71
2023-05-16T11:53:49.857Z,38.68
2023-05-16T11:56:21.736Z,38.30
2023-05-16T11:58:51.298Z,38.20
2023-05-16T12:01:20.086Z,38.33
2023-05-16T12:03:56.964Z,38.32
2023-05-16T12:06:26.255Z,38.30
2023-05-16T12:08:55.121Z,38.23
2023-05-16T12:11:25.371Z,37.99
2023-05-16T12:13:54.470Z,37.98
2023-05-16T12:16:23.778Z,38.04
2023-05-16T12:18:52.952Z,38.27
2023-05-16T12:21:21.889Z,38.03
2023-05-16T12:23:54.996Z,37.63
2023-05-16T12:26:27.070Z,37.75
2023-05-16T12:28:59.988Z,37.62
2023-05-16T12:31:32.182Z,37.60
2023-05-16T12:34:02.038Z,37.55
2023-05-16T12:36:34.353Z,37.57
2023-05-16T12:39:04.231Z,37.65
2023-05-16T12:41:33.419Z,37.60
2023-05-16T12:44:13.830Z,37.51
2023-05-16T12:46:45.083Z,37.79
2023-05-16T12:49:14.617Z,37.75
2023-05-16T12:51:50.774Z,37.63
2023-05-16T12:54:22.128Z,37.56
2023-05-16T12:56:51.252Z,37.60
2023-05-16T12:59:20.429Z,37.71
2023-05-16T13:01:50.359Z,37.79
2023-05-16T13:04:20.309Z,37.68
2023-05-16T13:06:59.333Z,37.55
2023-05-16T13:09:32.496Z,37.61
2023-05-16T13:12:02.083Z,38.00
2023-05-16T13:14:31.140Z,37.76
2023-05-16T13:17:00.207Z,37.71
2023-05-16T13:19:31.204Z,38.05
2023-05-16T13:22:00.318Z,38.02
2023-05-16T13:24:29.280Z,37.79
2023-05-16T13:26:59.051Z,37.69
2023-05-16T13:29:27.998Z,37.62
2023-05-16T13:31:57.269Z,37.70
2023-05-16T13:34:26.273Z,37.50
2023-05-16T13:36:55.270Z,37.83
2023-05-16T13:39:24.365Z,37.64
2023-05-16T13:41:54.544Z,37.86
2023-05-16T13:44:23.888Z,37.79
2023-05-16T13:46:52.855Z,37.94
2023-05-16T13:49:21.829Z,37.68
2023-05-16T13:51:51.856Z,37.57
2023-05-16T13:54:22.273Z,37.87
2023-05-16T13:56:51.349Z,37.80
2023-05-16T13:59:31.996Z,37.84
2023-05-16T14:02:09.362Z,37.72
2023-05-16T14:04:38.466Z,37.75
2023-05-16T14:07:07.342Z,37.88
2023-05-16T14:09:38.785Z,37.80
2023-05-16T14:12:08.935Z,37.82
2023-05-16T14:14:39.532Z,37.69
2023-05-16T14:17:08.591Z,37.74
2023-05-16T14:19:37.566Z,37.53
2023-05-16T14:22:07.650Z,37.79
2023-05-16T14:24:36.455Z,37.51
2023-05-16T14:27:06.464Z,37.51
2023-05-16T14:29:35.537Z,37.79
2023-05-16T14:32:05.088Z,37.70
2023-05-16T14:34:34.293Z,37.77
2023-05-16T14:37:03.499Z,37.71
2023-05-16T14:39:32.521Z,37.54
2023-05-16T14:42:01.422Z,37.72
2023-05-16T14:44:30.930Z,37.70
2023-05-16T14:47:00.086Z,37.59
2023-05-16T14:49:29.099Z,37.45
2023-05-16T14:51:58.168Z,37.25
2023-05-16T14:54:27.179Z,37.36
2023-05-16T14:56:56.288Z,37.12
2023-05-16T14:59:25.583Z,37.45
2023-05-16T15:01:54.726Z,37.27
2023-05-16T15:04:23.772Z,37.28
2023-05-16T15:06:52.726Z,37.37
2023-05-16T15:09:21.754Z,37.06
2023-05-16T15:11:50.795Z,37.37
2023-05-16T15:14:20.048Z,37.24
2023-05-16T15:16:49.275Z,37.40
2023-05-16T15:19:18.261Z,37.39
2023-05-16T15:21:47.279Z,37.15
2023-05-16T15:24:16.721Z,37.17
2023-05-16T15:26:45.920Z,37.14
2023-05-16T15:29:14.905Z,37.17
2023-05-16T15:31:44.069Z,37.02
2023-05-16T15:34:13.115Z,37.06
2023-05-16T15:36:42.190Z,36.81
2023-05-16T15:39:11.290Z,36.76
2023-05-16T15:42:01.021Z,36.90
2023-05-16T15:44:29.244Z,36.65
2023-05-16T15:46:58.300Z,36.93
2023-05-16T15:49:27.572Z,36.87
2023-05-16T15:51:56.538Z,36.74
2023-05-16T15:54:25.737Z,36.73
2023-05-16T15:56:54.928Z,37.01
2023-05-16T15:59:24.559Z,36.49
2023-05-16T16:01:53.737Z,36.72
2023-05-16T16:04:23.769Z,36.61
2023-05-16T16:06:52.884Z,36.46
2023-05-16T16:09:21.886Z,36.73
2023-05-16T16:11:55.475Z,36.58
2023-05-16T16:14:25.348Z,36.41
2023-05-16T16:16:54.413Z,36.71
2023-05-16T16:19:23.659Z,36.73
2023-05-16T16:21:52.918Z,36.73
2023-05-16T16:24:22.137Z,36.51
2023-05-16T16:26:51.397Z,36.61
2023-05-16T16:29:20.336Z,36.53
2023-05-16T16:31:49.378Z,36.20
2023-05-16T16:34:20.947Z,36.58
2023-05-16T16:36:51.615Z,36.33
2023-05-16T16:39:20.561Z,36.10
2023-05-16T16:41:49.705Z,36.54
2023-05-16T16:44:20.333Z,36.24
2023-05-16T16:46:49.823Z,36.10
2023-05-16T16:49:18.975Z,36.14
2023-05-16T16:51:49.484Z,35.92
2023-05-16T16:54:18.445Z,35.77
2023-05-16T16:56:48.949Z,35.75
2023-05-16T16:59:18.199Z,35.79
2023-05-16T17:01:47.510Z,35.80
2023-05-16T17:04:16.523Z,35.71
2023-05-16T17:06:47.822Z,35.64
2023-05-16T17:09:19.112Z,35.53
2023-05-16T17:11:48.248Z,35.64
2023-05-16T17:14:17.381Z,35.66
2023-05-16T17:16:46.550Z,35.56
2023-05-16T17:19:15.631Z,35.82
2023-05-16T17:21:49.974Z,35.70
2023-05-16T17:24:19.130Z,35.94
2023-05-16T17:26:48.371Z,35.83
2023-05-16T17:29:17.595Z,35.97
2023-05-16T17:31:46.668Z,36.15
2023-05-16T17:34:15.575Z,36.42
2023-05-16T17:36:44.785Z,36.47
2023-05-16T17:39:14.423Z,36.48
2023-05-16T17:41:43.392Z,36.57
2023-05-16T17:44:12.412Z,36.57
2023-05-16T17:46:42.088Z,36.82
2023-05-16T17:49:11.138Z,37.02
2023-05-16T17:51:48.056Z,37.08
2023-05-16T17:54:18.218Z,37.29
2023-05-16T17:56:48.102Z,37.45
2023-05-16T17:59:17.689Z,37.67
2023-05-16T18:01:46.967Z,37.81
2023-05-16T18:04:17.603Z,38.10
2023-05-16T18:06:47.811Z,38.28
2023-05-16T18:09:16.860Z,38.52
2023-05-16T18:11:45.980Z,38.74
2023-05-16T18:14:15.354Z,38.98
2023-05-16T18:16:44.532Z,39.12
2023-05-16T18:19:13.681Z,39.40
2023-05-16T18:21:44.492Z,39.75
2023-05-16T18:24:13.567Z,39.76
2023-05-16T18:26:43.761Z,39.96
2023-05-16T18:29:12.736Z,40.14
2023-05-16T18:31:41.969Z,40.27
2023-05-16T18:34:12.012Z,40.47
2023-05-16T18:36:40.982Z,40.59
2023-05-16T18:39:10.707Z,40.58
2023-05-16T18:41:40.358Z,40.92
2023-05-16T18:44:09.649Z,41.06
2023-05-16T18:46:38.655Z,41.12
2023-05-16T18:49:07.743Z,41.20
2023-05-16T18:51:36.855Z,41.53
2023-05-16T18:54:05.853Z,41.75
2023-05-16T18:56:35.441Z,41.92
2023-05-16T18:59:04.381Z,41.90
2023-05-16T19:01:33.924Z,42.17
2023-05-16T19:04:03.468Z,42.03
2023-05-16T19:06:32.496Z,42.60
2023-05-16T19:09:01.789Z,42.68
2023-05-16T19:11:30.926Z,42.75
2023-05-16T19:13:59.955Z,42.90
2023-05-16T19:16:28.997Z,42.90
2023-05-16T19:18:58.042Z,43.45
2023-05-16T19:21:27.662Z,43.72
2023-05-16T19:23:56.843Z,43.71
2023-05-16T19:26:26.011Z,43.88
2023-05-16T19:28:55.264Z,43.99
2023-05-16T19:31:24.549Z,44.15
2023-05-16T19:33:53.525Z,44.32
2023-05-16T19:36:22.500Z,44.65
2023-05-16T19:38:51.536Z,44.67
2023-05-16T19:41:21.462Z,45.07
2023-05-16T19:43:50.635Z,45.16
2023-05-16T19:46:19.779Z,45.23
2023-05-16T19:48:49.158Z,45.48
2023-05-16T19:51:29.508Z,45.85
2023-05-16T19:54:06.598Z,45.88
2023-05-16T19:56:35.568Z,46.04
2023-05-16T19:59:04.655Z,46.10
2023-05-16T20:01:33.563Z,46.33
2023-05-16T20:04:04.940Z,46.49
2023-05-16T20:06:34.135Z,46.97
2023-05-16T20:09:03.162Z,46.99
2023-05-16T20:11:32.091Z,47.03
2023-05-16T20:14:00.981Z,47.37
2023-05-16T20:16:29.971Z,47.32
2023-05-16T20:18:59.326Z,47.43
2023-05-16T20:21:28.564Z,47.77
2023-05-16T20:23:57.513Z,47.76
2023-05-16T20:26:26.636Z,47.84
2023-05-16T20:28:55.680Z,47.92
2023-05-16T20:31:24.710Z,48.10
2023-05-16T20:33:53.607Z,48.24
2023-05-16T20:36:22.705Z,48.37
2023-05-16T20:38:51.831Z,48.40
2023-05-16T20:41:21.403Z,48.41
2023-05-16T20:43:50.714Z,48.51
2023-05-16T20:46:19.730Z,48.46
2023-05-16T20:48:48.686Z,48.82
2023-05-16T20:51:17.877Z,48.65
2023-05-16T20:53:47.002Z,49.06
2023-05-16T20:56:15.802Z,49.04
2023-05-16T20:58:45.015Z,49.10
2023-05-16T21:01:13.898Z,49.13
2023-05-16T21:03:42.975Z,49.33
2023-05-16T21:06:12.110Z,49.58
2023-05-16T21:08:42.686Z,49.50
2023-05-16T21:11:11.812Z,49.63
2023-05-16T21:13:41.212Z,49.69
2023-05-16T21:16:11.954Z,49.78
2023-05-16T21:18:41.171Z,49.93
2023-05-16T21:21:10.526Z,50.01
2023-05-16T21:23:39.551Z,50.01
2023-05-16T21:26:08.782Z,50.21
2023-05-16T21:28:45.934Z,50.40
2023-05-16T21:31:23.299Z,50.52
2023-05-16T21:33:52.799Z,50.63
2023-05-16T21:36:22.759Z,50.68
2023-05-16T21:38:51.663Z,50.89
2023-05-16T21:41:21.825Z,51.08
2023-05-16T21:43:50.921Z,51.21
2023-05-16T21:46:20.479Z,51.19
2023-05-16T21:48:49.791Z,51.47
2023-05-16T21:51:19.250Z,51.39
2023-05-16T21:53:48.242Z,51.62
2023-05-16T21:56:18.251Z,51.83
2023-05-16T21:58:47.529Z,51.95
2023-05-16T22:01:16.821Z,52.11
2023-05-16T22:03:46.946Z,52.41
2023-05-16T22:06:16.062Z,52.44
2023-05-16T22:08:45.357Z,52.50
2023-05-16T22:11:14.613Z,52.67
2023-05-16T22:13:43.814Z,52.72
2023-05-16T22:16:12.990Z,52.84
2023-05-16T22:18:42.308Z,52.83
2023-05-16T22:21:11.755Z,52.96
2023-05-16T22:23:40.817Z,53.00
2023-05-16T22:26:10.008Z,53.14
2023-05-16T22:28:39.051Z,53.34
2023-05-16T22:31:08.190Z,53.33
2023-05-16T22:33:37.375Z,53.36
2023-05-16T22:36:07.673Z,53.46
2023-05-16T22:38:36.719Z,53.59
2023-05-16T22:41:06.198Z,53.65
2023-05-16T22:43:35.299Z,53.71
2023-05-16T22:46:04.470Z,53.82
2023-05-16T22:48:33.609Z,53.89
2023-05-16T22:51:02.880Z,54.02
2023-05-16T22:53:31.932Z,53.94
2023-05-16T22:56:01.180Z,54.08
2023-05-16T22:58:30.423Z,54.12
2023-05-16T23:01:00.825Z,54.23
2023-05-16T23:03:30.303Z,54.23
2023-05-16T23:05:59.443Z,54.24
2023-05-16T23:08:28.990Z,54.34
2023-05-16T23:10:58.216Z,54.36
2023-05-16T23:13:27.483Z,54.39
2023-05-16T23:15:56.738Z,54.50
2023-05-16T23:18:25.996Z,54.48
2023-05-16T23:20:55.101Z,54.60
2023-05-16T23:23:24.353Z,54.57
2023-05-16T23:25:53.570Z,54.61
2023-05-16T23:28:22.719Z,54.65
2023-05-16T23:30:51.981Z,54.68
2023-05-16T23:33:21.113Z,54.75
2023-05-16T23:35:50.218Z,54.82
2023-05-16T23:38:21.348Z,54.86
2023-05-16T23:40:50.434Z,54.92
2023-05-16T23:43:19.535Z,54.88
2023-05-16T23:45:48.596Z,54.97
2023-05-16T23:48:17.621Z,55.06
2023-05-16T23:50:46.750Z,55.16
2023-05-16T23:53:16.070Z,55.33
2023-05-16T23:55:45.465Z,55.32
2023-05-16T23:58:14.559Z,55.38
